Time;durP1;ratioP1;P1;durP2;ratioP2;P2;SDS_P1;SDS_P2;PMS_P1;PMS_P2;Temp;Humidity;BMP_temperature;BMP_pressure;BME280_temperature;BME280_humidity;BME280_pressure;Samples;Min_cycle;Max_cycle;Signal;HPM_P1;HPM_P2
2022/01/05 00:02:13;;;;;;;8.00;2.78;;;;;;;2.63;100.00;100188.84;5128695;27;20061;-78
2022/01/05 00:04:41;;;;;;;12.48;2.80;;;;;;;2.60;100.00;100182.69;5132140;27;20042;-77
2022/01/05 00:07:11;;;;;;;11.15;2.85;;;;;;;2.64;100.00;100187.91;5130086;27;20521;-77
2022/01/05 00:09:39;;;;;;;10.10;2.33;;;;;;;2.65;100.00;100190.53;5130016;27;20055;-77
2022/01/05 00:12:07;;;;;;;9.60;2.65;;;;;;;2.66;100.00;100191.44;5129161;27;20594;-77
2022/01/05 00:14:35;;;;;;;8.30;2.67;;;;;;;2.64;100.00;100195.81;5128508;27;20051;-77
2022/01/05 00:17:03;;;;;;;16.85;3.00;;;;;;;2.67;100.00;100191.41;5130957;27;20055;-75
2022/01/05 00:19:34;;;;;;;7.45;2.47;;;;;;;2.71;100.00;100198.41;5129622;27;20086;-77
2022/01/05 00:22:03;;;;;;;9.77;2.40;;;;;;;2.74;100.00;100197.47;5130194;27;20277;-78
2022/01/05 00:24:31;;;;;;;6.25;2.42;;;;;;;2.86;100.00;100191.22;5130234;27;20350;-77
2022/01/05 00:26:58;;;;;;;9.95;2.63;;;;;;;2.82;100.00;100193.00;5131561;27;20068;-75
2022/01/05 00:29:26;;;;;;;13.10;4.35;;;;;;;2.71;100.00;100195.75;5127787;27;20082;-77
2022/01/05 00:31:54;;;;;;;9.82;3.33;;;;;;;2.64;100.00;100191.44;5121707;27;20051;-76
2022/01/05 00:34:22;;;;;;;9.48;2.25;;;;;;;2.69;100.00;100196.66;5117092;27;20054;-75
2022/01/05 00:36:51;;;;;;;9.05;2.78;;;;;;;2.61;100.00;100205.50;5115370;27;20104;-75
2022/01/05 00:39:19;;;;;;;9.70;3.17;;;;;;;2.55;100.00;100208.19;5118114;27;20053;-77
2022/01/05 00:41:47;;;;;;;8.55;2.80;;;;;;;2.56;100.00;100206.44;5116463;27;20055;-76
2022/01/05 00:44:15;;;;;;;11.23;2.60;;;;;;;2.42;100.00;100202.19;5117823;27;20565;-75
2022/01/05 00:46:42;;;;;;;12.15;3.10;;;;;;;2.45;100.00;100208.28;5114391;27;20270;-75
2022/01/05 00:49:10;;;;;;;10.85;2.30;;;;;;;2.43;100.00;100208.31;5115759;27;20055;-75
2022/01/05 00:51:39;;;;;;;12.73;2.90;;;;;;;2.38;100.00;100199.56;5114674;27;20047;-76
2022/01/05 00:54:08;;;;;;;14.27;3.08;;;;;;;2.33;100.00;100199.59;5112587;27;20809;-76
2022/01/05 00:56:36;;;;;;;8.25;2.35;;;;;;;2.32;100.00;100194.38;5114610;27;20047;-76
2022/01/05 00:59:04;;;;;;;11.20;2.45;;;;;;;2.35;100.00;100202.22;5115950;27;20078;-75
2022/01/05 01:01:56;;;;;;;8.52;2.63;;;;;;;2.30;100.00;100210.19;5114812;27;20147;-76
2022/01/05 01:04:24;;;;;;;6.75;2.35;;;;;;;2.26;100.00;100207.59;5117429;27;20116;-76
2022/01/05 01:06:52;;;;;;;8.98;2.38;;;;;;;2.19;100.00;100212.03;5114714;27;20123;-76
2022/01/05 01:09:21;;;;;;;6.32;2.33;;;;;;;2.19;100.00;100209.38;5116617;27;20047;-76
2022/01/05 01:11:50;;;;;;;12.38;2.63;;;;;;;2.16;100.00;100218.19;5118695;27;20115;-76
2022/01/05 01:14:19;;;;;;;7.47;2.47;;;;;;;2.10;100.00;100215.59;5113866;27;20051;-76
2022/01/05 01:16:46;;;;;;;9.73;2.70;;;;;;;2.07;100.00;100217.38;5114368;27;20050;-76
2022/01/05 01:19:14;;;;;;;10.10;2.00;;;;;;;1.99;100.00;100226.22;5113071;27;20074;-76
2022/01/05 01:21:42;;;;;;;13.30;3.17;;;;;;;2.10;100.00;100218.22;5113931;27;20154;-76
2022/01/05 01:24:10;;;;;;;6.82;2.22;;;;;;;2.13;100.00;100209.44;5114924;27;20244;-76
2022/01/05 01:26:39;;;;;;;13.52;2.97;;;;;;;2.07;100.00;100218.25;5114111;27;20518;-77
2022/01/05 01:29:07;;;;;;;11.95;3.17;;;;;;;1.97;100.00;100224.47;5114177;27;21381;-77
2022/01/05 01:31:35;;;;;;;7.47;2.65;;;;;;;1.94;100.00;100225.38;5112853;27;20043;-74
2022/01/05 01:34:03;;;;;;;10.63;3.38;;;;;;;2.03;100.00;100219.16;5114911;27;20399;-77
2022/01/05 01:36:31;;;;;;;13.05;2.85;;;;;;;2.01;100.00;100216.53;5111187;27;20047;-77
2022/01/05 01:38:59;;;;;;;6.05;2.28;;;;;;;2.04;100.00;100213.91;5115373;27;20130;-76
2022/01/05 01:41:27;;;;;;;9.02;3.85;;;;;;;2.03;100.00;100221.81;5113006;27;20454;-76
2022/01/05 01:43:56;;;;;;;9.20;2.55;;;;;;;2.10;100.00;100225.25;5115574;27;20138;-76
2022/01/05 01:46:24;;;;;;;15.27;3.30;;;;;;;2.12;100.00;100215.59;5113281;27;20142;-77
2022/01/05 01:48:52;;;;;;;19.02;4.63;;;;;;;2.16;100.00;100227.84;5116749;27;20382;-77
2022/01/05 01:51:20;;;;;;;12.80;3.78;;;;;;;2.25;100.00;100227.78;5113453;27;20611;-76
2022/01/05 01:53:50;;;;;;;11.52;3.20;;;;;;;2.12;100.00;100219.09;5110433;27;20491;-73
2022/01/05 01:56:22;;;;;;;8.07;2.47;;;;;;;2.20;100.00;100224.31;5112256;27;20059;-74
2022/01/05 01:58:52;;;;;;;6.18;2.20;;;;;;;2.20;100.00;100225.19;5113103;27;20076;-74
2022/01/05 02:01:23;;;;;;;10.48;2.67;;;;;;;2.27;100.00;100233.03;5114244;27;20075;-74
2022/01/05 02:04:01;;;;;;;7.20;2.80;;;;;;;2.28;100.00;100229.50;5114904;27;20051;-74
2022/01/05 02:06:37;;;;;;;9.00;3.75;;;;;;;2.28;100.00;100240.91;5115602;27;20496;-73
2022/01/05 02:09:06;;;;;;;17.85;3.78;;;;;;;2.29;100.00;100239.16;5097492;27;20051;-74
2022/01/05 02:11:38;;;;;;;13.10;2.70;;;;;;;2.34;100.00;100250.53;5113933;27;21427;-74
2022/01/05 02:14:09;;;;;;;10.50;3.50;;;;;;;2.46;100.00;100244.28;5114266;27;20049;-73
2022/01/05 02:16:44;;;;;;;9.30;3.05;;;;;;;2.50;100.00;100240.72;5114582;27;20615;-74
2022/01/05 02:19:13;;;;;;;10.35;2.88;;;;;;;2.54;100.00;100238.06;5114383;27;20079;-74
2022/01/05 02:21:43;;;;;;;10.70;2.13;;;;;;;2.60;100.00;100239.78;5114339;27;20605;-74
2022/01/05 02:24:15;;;;;;;12.77;2.67;;;;;;;2.61;100.00;100239.75;5114407;27;20322;-74
2022/01/05 02:27:08;;;;;;;11.57;3.15;;;;;;;2.54;100.00;100231.94;5113402;27;20053;-74
2022/01/05 02:29:39;;;;;;;6.88;3.42;;;;;;;2.66;100.00;100223.91;5095217;27;20059;-74
2022/01/05 02:32:08;;;;;;;22.50;3.83;;;;;;;2.68;100.00;100230.03;5112466;27;20059;-74
2022/01/05 02:34:41;;;;;;;11.95;3.28;;;;;;;2.58;100.00;100234.50;5094798;27;20051;-74
2022/01/05 02:37:10;;;;;;;9.98;3.03;;;;;;;2.71;100.00;100237.06;5111079;27;20047;-74
2022/01/05 02:39:38;;;;;;;10.88;3.42;;;;;;;2.66;100.00;100229.19;5114477;27;20055;-73
2022/01/05 02:42:09;;;;;;;17.95;3.05;;;;;;;2.70;100.00;100232.66;5111371;27;20055;-73
2022/01/05 02:44:44;;;;;;;;;;;;;;;2.69;100.00;100239.69;5115181;27;20410;-73
2022/01/05 02:47:12;;;;;;;9.25;2.88;;;;;;;2.69;100.00;100228.25;5070827;27;20193;-73
2022/01/05 02:49:40;;;;;;;12.82;3.85;;;;;;;2.74;100.00;100235.25;5093713;27;20451;-76
2022/01/05 02:52:11;;;;;;;16.33;3.60;;;;;;;2.69;100.00;100244.97;5110640;27;20111;-76
2022/01/05 02:55:06;;;;;;;10.52;3.55;;;;;;;2.69;100.00;100250.25;5112474;27;20637;-75
2022/01/05 02:57:34;;;;;;;11.43;3.30;;;;;;;2.70;100.00;100253.75;5112002;27;20066;-75
2022/01/05 03:00:04;;;;;;;15.57;3.80;;;;;;;2.71;100.00;100256.38;5114143;27;20080;-76
2022/01/05 03:02:31;;;;;;;10.10;4.15;;;;;;;2.69;100.00;100254.63;5115928;27;20508;-76
2022/01/05 03:05:01;;;;;;;12.65;3.35;;;;;;;2.73;100.00;100249.31;5114455;27;20411;-76
2022/01/05 03:07:29;;;;;;;19.52;3.70;;;;;;;2.69;100.00;100259.88;5115248;27;20039;-76
2022/01/05 03:09:58;;;;;;;9.60;2.75;;;;;;;2.74;100.00;100258.97;5105021;27;20053;-76
2022/01/05 03:12:27;;;;;;;7.00;2.70;;;;;;;2.74;100.00;100273.88;5114036;27;20055;-76
2022/01/05 03:14:55;;;;;;;12.15;4.28;;;;;;;2.66;100.00;100259.94;5110546;27;20286;-76
2022/01/05 03:17:23;;;;;;;9.05;3.30;;;;;;;2.69;100.00;100263.41;5113767;27;20108;-76
2022/01/05 03:19:52;;;;;;;13.25;3.35;;;;;;;2.67;100.00;100262.53;5111582;28;20071;-76
2022/01/05 03:22:19;;;;;;;11.65;3.13;;;;;;;2.73;100.00;100272.16;5113334;28;20043;-76
2022/01/05 03:24:49;;;;;;;18.25;5.28;;;;;;;2.67;100.00;100283.59;5114074;28;20489;-76
2022/01/05 03:27:17;;;;;;;19.25;3.65;;;;;;;2.74;100.00;100276.53;5113984;28;20051;-76
2022/01/05 03:29:46;;;;;;;11.45;3.20;;;;;;;2.70;100.00;100280.94;5113635;27;20058;-75
2022/01/05 03:32:15;;;;;;;17.67;3.63;;;;;;;2.78;100.00;100270.34;5112313;28;21132;-77
2022/01/05 03:34:44;;;;;;;11.55;2.70;;;;;;;2.79;100.00;100274.72;5112875;27;20093;-74
2022/01/05 03:37:12;;;;;;;16.95;3.75;;;;;;;2.86;100.00;100279.06;5112478;28;20071;-74
2022/01/05 03:39:41;;;;;;;14.60;4.75;;;;;;;2.91;100.00;100265.81;5113473;27;20075;-76
2022/01/05 03:42:09;;;;;;;11.90;3.50;;;;;;;2.89;100.00;100273.75;5110211;28;20051;-76
2022/01/05 03:44:37;;;;;;;11.55;3.35;;;;;;;2.90;100.00;100286.03;5110241;28;20134;-76
2022/01/05 03:47:07;;;;;;;13.95;4.82;;;;;;;2.94;100.00;100289.53;5112689;27;20047;-76
2022/01/05 03:49:35;;;;;;;13.35;3.30;;;;;;;2.97;100.00;100287.72;5113172;28;21402;-76
2022/01/05 03:52:04;;;;;;;11.07;4.03;;;;;;;3.02;100.00;100289.47;5113954;28;20054;-76
2022/01/05 03:54:32;;;;;;;22.65;3.92;;;;;;;2.99;100.00;100295.63;5112197;28;20051;-76
2022/01/05 03:56:59;;;;;;;15.00;3.28;;;;;;;3.02;100.00;100294.72;5115012;28;20104;-76
2022/01/05 03:59:30;;;;;;;8.55;3.17;;;;;;;3.08;100.00;100295.56;5108869;28;20058;-76
2022/01/05 04:02:00;;;;;;;8.52;2.50;;;;;;;3.14;100.00;100287.56;5110757;27;20046;-76
2022/01/05 04:04:29;;;;;;;17.10;3.20;;;;;;;3.17;100.00;100287.53;5111337;28;20138;-76
2022/01/05 04:06:57;;;;;;;13.35;3.40;;;;;;;3.18;100.00;100286.66;5115060;27;20085;-76
2022/01/05 04:09:26;;;;;;;19.98;3.58;;;;;;;3.20;100.00;100294.53;5114972;27;20202;-76
2022/01/05 04:11:54;;;;;;;12.75;3.10;;;;;;;3.27;100.00;100292.69;5115217;27;20085;-76
2022/01/05 04:14:22;;;;;;;19.40;3.78;;;;;;;3.25;100.00;100295.38;5116671;27;20055;-76
2022/01/05 04:17:04;;;;;;;;;;;;;;;;;;;;;
2022/01/05 04:19:35;;;;;;;10.75;3.75;;;;;;;3.28;100.00;100294.47;5116988;27;20051;-76
2022/01/05 04:22:04;;;;;;;11.90;3.25;;;;;;;3.31;100.00;100295.28;5116999;27;20046;-76
2022/01/05 04:24:32;;;;;;;7.95;2.95;;;;;;;3.32;100.00;100298.78;5116413;27;20508;-76
2022/01/05 04:26:59;;;;;;;14.55;4.40;;;;;;;3.33;100.00;100314.59;5116456;27;20508;-76
2022/01/05 04:29:27;;;;;;;7.55;2.72;;;;;;;3.30;100.00;100309.38;5117715;27;20087;-76
2022/01/05 04:31:56;;;;;;;16.48;4.68;;;;;;;3.31;100.00;100302.34;5117656;27;20047;-77
2022/01/05 04:34:24;;;;;;;8.55;3.05;;;;;;;3.32;100.00;100304.97;5114905;27;20047;-76
2022/01/05 04:37:14;;;;;;;18.52;4.40;;;;;;;3.29;100.00;100305.00;5117084;27;20419;-76
2022/01/05 04:39:42;;;;;;;10.93;3.20;;;;;;;3.25;100.00;100311.19;5114678;27;20077;-76
2022/01/05 04:42:11;;;;;;;14.02;3.33;;;;;;;3.23;100.00;100307.69;5118783;27;20142;-76
2022/01/05 04:44:39;;;;;;;12.70;3.25;;;;;;;3.25;100.00;100305.03;5113615;27;20170;-76
2022/01/05 04:47:08;;;;;;;16.17;3.63;;;;;;;3.25;100.00;100302.41;5118666;27;20141;-77
2022/01/05 04:49:40;;;;;;;6.32;2.97;;;;;;;3.26;100.00;100302.38;5114233;27;20054;-77
2022/01/05 04:52:09;;;;;;;20.42;3.78;;;;;;;3.22;100.00;100308.59;5116210;27;20035;-78
2022/01/05 04:54:42;;;;;;;12.48;3.58;;;;;;;3.26;100.00;100305.00;5115925;27;20090;-78
2022/01/05 04:57:11;;;;;;;23.95;4.18;;;;;;;3.26;100.00;100315.56;5118128;27;20243;-76
2022/01/05 04:59:43;;;;;;;15.82;3.30;;;;;;;3.30;100.00;100313.75;5113283;27;20047;-76
2022/01/05 05:02:15;;;;;;;9.73;2.63;;;;;;;3.34;100.00;100319.00;5114117;27;20051;-76
2022/01/05 05:04:43;;;;;;;11.80;2.65;;;;;;;3.34;100.00;100324.28;5114340;27;20122;-76
2022/01/05 05:07:15;;;;;;;6.68;2.92;;;;;;;3.33;100.00;100335.69;5115991;27;20051;-76
2022/01/05 05:09:44;;;;;;;10.43;3.92;;;;;;;3.30;100.00;100335.75;5117089;27;20652;-76
2022/01/05 05:12:36;;;;;;;14.55;3.53;;;;;;;3.26;100.00;100336.66;5112611;27;20512;-76
2022/01/05 05:15:04;;;;;;;15.85;3.00;;;;;;;3.30;100.00;100337.50;5114616;27;20055;-76
2022/01/05 05:17:34;;;;;;;12.93;3.40;;;;;;;3.23;100.00;100326.13;5114224;27;20126;-76
2022/01/05 05:20:02;;;;;;;11.23;2.50;;;;;;;3.26;100.00;100339.28;5114677;27;20565;-76
2022/01/05 05:22:33;;;;;;;12.00;3.40;;;;;;;3.30;100.00;100335.75;5112813;27;20051;-76
2022/01/05 05:25:03;;;;;;;13.40;2.85;;;;;;;3.33;100.00;100332.19;5117192;27;20112;-76
2022/01/05 05:27:31;;;;;;;14.07;3.70;;;;;;;3.29;100.00;100335.78;5113858;27;20100;-76
2022/01/05 05:30:02;;;;;;;13.55;3.17;;;;;;;3.33;100.00;100345.38;5116191;27;20070;-76
2022/01/05 05:32:35;;;;;;;16.30;3.75;;;;;;;3.35;100.00;100340.97;5114128;27;20050;-76
2022/01/05 05:35:06;;;;;;;14.50;4.55;;;;;;;3.35;100.00;100331.31;5112930;27;20259;-76
2022/01/05 05:37:58;;;;;;;14.40;3.83;;;;;;;3.38;100.00;100330.38;5115952;27;20053;-76
2022/01/05 05:40:28;;;;;;;12.90;3.60;;;;;;;3.34;100.00;100337.47;5115144;27;20050;-76
2022/01/05 05:43:08;;;;;;;13.85;3.35;;;;;;;3.44;100.00;100326.81;5115295;27;20229;-76
2022/01/05 05:46:00;;;;;;;7.97;2.78;;;;;;;3.41;100.00;100313.66;5117122;27;20449;-76
2022/01/05 05:48:31;;;;;;;13.13;2.53;;;;;;;3.41;100.00;100319.81;5115695;27;20107;-76
2022/01/05 05:50:59;;;;;;;12.55;3.90;;;;;;;3.36;100.00;100326.91;5113679;27;20059;-76
2022/01/05 05:53:28;;;;;;;11.30;3.05;;;;;;;3.29;100.00;100327.84;5115830;27;20047;-76
2022/01/05 05:55:58;;;;;;;14.30;3.72;;;;;;;3.34;100.00;100333.97;5113076;27;20058;-76
2022/01/05 05:58:27;;;;;;;9.95;3.17;;;;;;;3.30;100.00;100338.41;5116474;27;20119;-76
2022/01/05 06:00:55;;;;;;;16.88;4.13;;;;;;;3.34;100.00;100345.38;5111061;27;20512;-76
2022/01/05 06:03:23;;;;;;;20.08;3.78;;;;;;;3.37;100.00;100339.19;5114068;27;20039;-76
2022/01/05 06:05:51;;;;;;;15.32;3.63;;;;;;;3.42;100.00;100336.50;5114220;27;20141;-76
2022/01/05 06:08:49;;;;;;;14.10;3.17;;;;;;;3.43;100.00;100343.53;5114598;27;20146;-73
2022/01/05 06:11:30;;;;;;;16.05;2.97;;;;;;;3.52;100.00;100349.59;5113460;27;20552;-73
2022/01/05 06:14:24;;;;;;;16.23;3.40;;;;;;;3.57;100.00;100346.88;5099468;27;20043;-73
2022/01/05 06:17:09;;;;;;;14.10;3.58;;;;;;;3.54;100.00;100344.28;5098634;27;20151;-72
2022/01/05 06:20:05;;;;;;;11.32;3.65;;;;;;;3.58;100.00;100334.59;5114876;27;20082;-75
2022/01/05 06:22:38;;;;;;;9.35;2.90;;;;;;;3.61;100.00;100343.34;5096064;27;20054;-75
2022/01/05 06:25:14;;;;;;;8.65;2.47;;;;;;;3.67;100.00;100347.66;5114031;27;20043;-74
2022/01/05 06:27:50;;;;;;;11.00;3.10;;;;;;;3.76;100.00;100349.31;5114755;27;20083;-75
2022/01/05 06:30:26;;;;;;;12.88;3.38;;;;;;;3.81;100.00;100344.84;5110383;27;20054;-74
2022/01/05 06:33:10;;;;;;;13.55;3.25;;;;;;;3.76;100.00;100365.16;5114273;27;20062;-75
2022/01/05 06:35:41;;;;;;;13.77;3.05;;;;;;;3.78;100.00;100360.72;5111179;27;20051;-74
2022/01/05 06:38:16;;;;;;;17.73;4.00;;;;;;;3.77;100.00;100362.50;5113198;27;20614;-75
2022/01/05 06:40:48;;;;;;;13.35;2.92;;;;;;;3.74;100.00;100360.75;5114919;27;20564;-75
2022/01/05 06:43:31;;;;;;;16.05;4.47;;;;;;;3.74;100.00;100370.44;5096188;27;20039;-75
2022/01/05 06:46:12;;;;;;;10.10;3.10;;;;;;;3.65;100.00;100362.66;5096216;27;20047;-74
2022/01/05 06:48:48;;;;;;;12.38;4.45;;;;;;;3.67;100.00;100381.97;5097540;27;20054;-74
2022/01/05 06:51:22;;;;;;;13.77;4.22;;;;;;;3.64;100.00;100379.34;5110468;27;20146;-74
2022/01/05 06:53:54;;;;;;;24.55;4.28;;;;;;;3.72;100.00;100377.50;5111129;27;20675;-73
2022/01/05 06:56:25;;;;;;;25.77;3.92;;;;;;;3.71;100.00;100376.66;5112119;27;20123;-72
2022/01/05 06:59:06;;;;;;;24.75;3.90;;;;;;;3.67;100.00;100369.63;5112300;27;20039;-73
2022/01/05 07:01:50;;;;;;;15.38;4.63;;;;;;;3.65;100.00;100366.16;5110095;27;20047;-73
2022/01/05 07:04:21;;;;;;;12.23;2.92;;;;;;;3.68;100.00;100381.09;5114818;27;20051;-76
2022/01/05 07:06:49;;;;;;;16.50;4.45;;;;;;;3.63;100.00;100398.72;5113005;27;20071;-75
2022/01/05 07:09:17;;;;;;;18.88;4.18;;;;;;;3.72;100.00;100386.28;5115064;27;20505;-76
2022/01/05 07:11:45;;;;;;;11.57;3.15;;;;;;;3.75;100.00;100377.47;5113188;27;20043;-75
2022/01/05 07:14:14;;;;;;;13.18;4.05;;;;;;;3.77;100.00;100399.44;5108979;27;20559;-76
2022/01/05 07:16:42;;;;;;;15.18;3.60;;;;;;;3.72;100.00;100406.53;5110212;27;20055;-77
2022/01/05 07:19:12;;;;;;;15.38;3.05;;;;;;;3.70;100.00;100397.78;5109065;27;20535;-78
2022/01/05 07:21:40;;;;;;;21.67;4.55;;;;;;;3.76;100.00;100399.47;5113880;27;20055;-77
2022/01/05 07:24:11;;;;;;;20.45;4.63;;;;;;;3.77;100.00;100414.41;5113162;27;20836;-77
2022/01/05 07:26:40;;;;;;;22.15;4.43;;;;;;;3.84;100.00;100413.44;5112750;27;20073;-77
2022/01/05 07:29:08;;;;;;;18.92;4.10;;;;;;;3.84;100.00;100430.16;5111943;28;20537;-78
2022/01/05 07:31:41;;;;;;;16.35;3.67;;;;;;;3.92;100.00;100417.75;5111284;28;20595;-78
2022/01/05 07:34:09;;;;;;;14.85;5.05;;;;;;;3.91;100.00;100415.13;5113136;27;21064;-78
2022/01/05 07:36:38;;;;;;;14.57;4.78;;;;;;;3.93;100.00;100426.53;5114131;27;20149;-75
2022/01/05 07:39:06;;;;;;;18.23;4.05;;;;;;;3.92;100.00;100422.16;5112490;27;20627;-76
2022/01/05 07:41:35;;;;;;;11.93;3.25;;;;;;;3.97;100.00;100422.97;5113942;27;20074;-76
2022/01/05 07:44:04;;;;;;;14.68;3.45;;;;;;;3.99;100.00;100423.84;5117342;27;20675;-76
2022/01/05 07:46:34;;;;;;;22.75;3.90;;;;;;;4.05;100.00;100442.25;5117244;27;20043;-76
2022/01/05 07:49:11;;;;;;;16.17;2.83;;;;;;;4.10;100.00;100431.63;5116806;27;20039;-76
2022/01/05 07:51:43;;;;;;;17.50;3.58;;;;;;;4.19;100.00;100435.91;5115490;27;20150;-76
2022/01/05 07:54:13;;;;;;;19.55;3.33;;;;;;;4.25;100.00;100443.78;5116281;27;20048;-76
2022/01/05 07:57:05;;;;;;;15.53;4.13;;;;;;;4.31;100.00;100454.28;5117615;27;20858;-76
2022/01/05 07:59:47;;;;;;;11.48;3.22;;;;;;;4.28;100.00;100456.94;5114323;27;20050;-74
2022/01/05 08:02:29;;;;;;;16.08;2.65;;;;;;;4.24;100.00;100453.47;5116567;27;20083;-74
2022/01/05 08:05:17;;;;;;;12.48;4.28;;;;;;;4.26;100.00;100449.03;5114773;27;20078;-74
2022/01/05 08:07:47;;;;;;;17.13;5.07;;;;;;;4.26;100.00;100459.59;5113541;27;20554;-76
2022/01/05 08:10:17;;;;;;;12.38;3.92;;;;;;;4.26;100.00;100456.09;5120246;27;20051;-80
2022/01/05 08:12:49;;;;;;;15.15;3.33;;;;;;;4.29;100.00;100469.25;5121340;27;20052;-77
2022/01/05 08:15:17;;;;;;;14.05;3.60;;;;;;;4.27;100.00;100465.75;5116194;27;20119;-78
2022/01/05 08:17:45;;;;;;;14.25;3.63;;;;;;;4.28;100.00;100468.38;5119572;27;20088;-77
2022/01/05 08:20:13;;;;;;;17.38;3.63;;;;;;;4.24;100.00;100463.13;5114812;27;20043;-76
2022/01/05 08:22:45;;;;;;;17.70;3.75;;;;;;;4.19;100.00;100479.06;5117755;27;20043;-77
2022/01/05 08:25:15;;;;;;;12.27;3.50;;;;;;;4.19;100.00;100488.72;5113726;27;20067;-77
2022/01/05 08:27:54;;;;;;;14.32;3.00;;;;;;;4.18;100.00;100498.44;5116707;27;20682;-77
2022/01/05 08:37:27;;;;;;;16.65;4.20;;;;;;;4.13;100.00;100502.88;5094259;28;20051;-77
2022/01/05 08:39:56;;;;;;;11.07;3.03;;;;;;;4.13;100.00;100516.09;5097296;27;20546;-77
2022/01/05 08:42:24;;;;;;;14.38;3.05;;;;;;;4.16;100.00;100518.69;5096799;27;20047;-77
2022/01/05 08:44:52;;;;;;;16.73;3.20;;;;;;;4.09;100.00;100512.59;5095152;28;20048;-79
2022/01/05 08:47:20;;;;;;;12.95;3.63;;;;;;;4.14;100.00;100519.59;5097979;28;20056;-79
2022/01/05 08:49:47;;;;;;;13.90;4.03;;;;;;;4.14;100.00;100512.56;5097065;28;20120;-79
2022/01/05 08:52:15;;;;;;;15.38;4.07;;;;;;;4.16;100.00;100533.69;5095348;28;20078;-77
2022/01/05 08:54:43;;;;;;;13.20;3.53;;;;;;;4.14;100.00;100517.84;5095211;28;20099;-77
2022/01/05 08:57:13;;;;;;;16.75;3.55;;;;;;;4.18;100.00;100523.97;5095336;28;20127;-77
2022/01/05 08:59:41;;;;;;;12.75;3.05;;;;;;;4.20;100.00;100543.31;5093778;28;20123;-79
2022/01/05 09:05:37;;;;;;;13.02;3.58;;;;;;;4.32;100.00;100535.25;5093196;28;20151;-69
2022/01/05 09:08:12;;;;;;;14.07;4.20;;;;;;;4.32;100.00;100531.75;5096427;27;20457;-69
2022/01/05 09:11:07;;;;;;;18.27;4.38;;;;;;;4.36;100.00;100531.69;5095498;27;20185;-69
2022/01/05 09:13:45;;;;;;;21.77;4.15;;;;;;;4.40;100.00;100537.81;5094330;28;20079;-69
2022/01/05 09:16:20;;;;;;;17.23;3.55;;;;;;;4.38;100.00;100537.84;5096117;28;20051;-69
2022/01/05 09:18:49;;;;;;;12.02;3.33;;;;;;;4.37;100.00;100549.28;5094732;28;20047;-69
2022/01/05 09:21:20;;;;;;;15.75;3.67;;;;;;;4.43;100.00;100546.59;5096596;28;20051;-69
2022/01/05 09:23:50;;;;;;;11.60;3.33;;;;;;;4.45;100.00;100557.13;5095362;28;20133;-69
2022/01/05 09:26:18;;;;;;;11.80;2.88;;;;;;;4.48;100.00;100560.59;5096075;27;20071;-70
2022/01/05 09:28:49;;;;;;;23.02;5.13;;;;;;;4.46;100.00;100580.00;5095275;28;20043;-68
2022/01/05 09:31:17;;;;;;;18.90;4.35;;;;;;;4.52;100.00;100569.38;5106450;27;20039;-68
2022/01/05 09:33:45;;;;;;;21.98;4.03;;;;;;;4.53;100.00;100572.88;5114054;27;20313;-69
2022/01/05 09:36:17;;;;;;;17.38;4.00;;;;;;;4.59;100.00;100578.09;5118378;27;20084;-69
2022/01/05 09:42:00;;;;;;;20.45;3.72;;;;;;;4.64;100.00;100593.00;5070798;27;20047;-69
2022/01/05 09:44:32;;;;;;;16.48;3.58;;;;;;;4.67;100.00;100585.06;5114236;27;20459;-69
2022/01/05 09:47:21;;;;;;;16.87;3.43;;;;;;;4.71;100.00;100604.38;5115322;27;20111;-69
2022/01/05 09:49:54;;;;;;;19.92;4.35;;;;;;;4.73;100.00;100599.94;5114522;27;20817;-70
2022/01/05 09:52:23;;;;;;;14.88;3.35;;;;;;;4.72;100.00;100611.44;5114127;27;20150;-69
2022/01/05 09:54:51;;;;;;;12.73;3.63;;;;;;;4.74;100.00;100612.28;5114030;27;20050;-69
2022/01/05 09:57:21;;;;;;;10.93;2.55;;;;;;;4.74;100.00;100622.00;5115769;27;20088;-69
2022/01/05 09:59:53;;;;;;;24.58;3.42;;;;;;;4.74;100.00;100619.34;5116183;27;20059;-69
2022/01/05 10:02:21;;;;;;;17.98;3.90;;;;;;;4.72;100.00;100618.50;5115642;27;20167;-69
2022/01/05 10:04:50;;;;;;;22.30;4.82;;;;;;;4.73;100.00;100623.75;5112827;27;20066;-69
2022/01/05 10:07:18;;;;;;;18.05;4.47;;;;;;;4.78;100.00;100635.13;5112604;27;20456;-73
2022/01/05 10:09:49;;;;;;;18.85;3.53;;;;;;;4.83;100.00;100637.75;5114862;27;20481;-73
2022/01/05 10:12:17;;;;;;;14.20;4.03;;;;;;;4.82;100.00;100634.22;5113038;27;20043;-73
2022/01/05 10:15:13;;;;;;;13.77;3.88;;;;;;;4.87;100.00;100639.47;5115085;27;20132;-74
2022/01/05 10:17:41;;;;;;;20.15;4.28;;;;;;;4.87;100.00;100615.69;5113746;27;20100;-74
2022/01/05 10:20:11;;;;;;;19.33;3.58;;;;;;;4.91;100.00;100635.88;5115253;27;20075;-74
2022/01/05 10:22:40;;;;;;;24.85;4.10;;;;;;;4.95;100.00;100636.72;5116290;27;20321;-73
2022/01/05 10:25:16;;;;;;;16.20;2.78;;;;;;;4.98;100.00;100649.91;5114420;27;20043;-74
2022/01/05 10:27:55;;;;;;;21.48;3.78;;;;;;;4.96;100.00;100654.34;5116909;27;20140;-73
2022/01/05 10:30:34;;;;;;;25.33;5.10;;;;;;;4.93;100.00;100657.88;5113322;27;20046;-69
2022/01/05 10:33:02;;;;;;;26.23;4.38;;;;;;;4.97;100.00;100658.72;5116168;27;20134;-70
2022/01/05 10:35:33;;;;;;;14.93;3.33;;;;;;;4.95;100.00;100649.94;5112428;27;20075;-70
2022/01/05 10:38:04;;;;;;;19.23;4.10;;;;;;;4.93;100.00;100668.47;5115273;27;20054;-70
2022/01/05 10:40:34;;;;;;;17.08;4.30;;;;;;;4.89;100.00;100679.97;5114898;27;20053;-70
2022/01/05 10:43:08;;;;;;;18.30;3.22;;;;;;;4.85;100.00;100679.16;5114781;27;20047;-69
2022/01/05 10:45:42;;;;;;;11.82;3.13;;;;;;;4.80;100.00;100688.00;5113373;27;20039;-69
2022/01/05 10:48:12;;;;;;;19.67;3.97;;;;;;;4.79;100.00;100694.19;5113166;27;20047;-69
2022/01/05 10:50:41;;;;;;;22.45;3.50;;;;;;;4.84;100.00;100695.03;5113866;27;20083;-71
2022/01/05 10:53:09;;;;;;;17.73;3.58;;;;;;;4.85;100.00;100689.72;5112993;27;20047;-70
2022/01/05 10:56:01;;;;;;;10.50;2.88;;;;;;;4.91;100.00;100703.78;5115877;27;20188;-69
2022/01/05 10:58:42;;;;;;;17.73;3.33;;;;;;;4.95;100.00;100693.13;5113399;27;20057;-70
2022/01/05 11:01:28;;;;;;;12.60;3.92;;;;;;;4.94;100.00;100704.59;5115132;27;20560;-69
2022/01/05 11:03:56;;;;;;;15.60;3.53;;;;;;;4.85;100.00;100713.53;5111310;27;20536;-69
2022/01/05 11:06:25;;;;;;;24.52;5.40;;;;;;;4.88;100.00;100717.00;5109157;27;20075;-69
2022/01/05 11:08:55;;;;;;;20.58;3.70;;;;;;;4.91;100.00;100717.00;5115662;27;20057;-69
2022/01/05 11:11:32;;;;;;;18.05;4.22;;;;;;;4.92;100.00;100714.34;5114749;27;20051;-70
2022/01/05 11:14:02;;;;;;;17.88;3.65;;;;;;;4.94;100.00;100714.28;5114517;27;20058;-69
2022/01/05 11:16:33;;;;;;;17.17;3.75;;;;;;;4.92;100.00;100709.03;5117667;27;20462;-69
2022/01/05 11:19:20;;;;;;;12.18;2.90;;;;;;;4.88;100.00;100707.31;5114798;27;20055;-70
2022/01/05 11:22:00;;;;;;;17.53;3.67;;;;;;;4.93;100.00;100712.56;5115767;28;20138;-69
2022/01/05 11:24:31;;;;;;;18.52;4.05;;;;;;;4.93;100.00;100707.25;5115287;27;20299;-69
2022/01/05 11:27:02;;;;;;;22.27;5.22;;;;;;;5.03;100.00;100701.84;5114913;28;20043;-69
2022/01/05 11:29:33;;;;;;;19.95;4.30;;;;;;;5.11;100.00;100715.00;5115163;28;20051;-69
2022/01/05 11:32:06;;;;;;;19.23;3.13;;;;;;;5.22;100.00;100706.91;5114823;27;20061;-70
2022/01/05 11:34:35;;;;;;;21.52;4.43;;;;;;;5.22;100.00;100725.44;5115808;28;20047;-70
2022/01/05 11:37:07;;;;;;;21.63;4.22;;;;;;;5.15;100.00;100719.34;5111564;28;20039;-70
2022/01/05 11:39:59;;;;;;;20.23;3.65;;;;;;;5.12;100.00;100734.38;5114999;27;20054;-70
2022/01/05 11:42:33;;;;;;;18.02;4.60;;;;;;;5.14;100.00;100738.78;5114118;28;20051;-68
2022/01/05 11:45:04;;;;;;;12.98;3.63;;;;;;;5.13;100.00;100742.31;5114276;28;21201;-69
2022/01/05 11:47:38;;;;;;;19.40;3.55;;;;;;;5.12;100.00;100756.41;5111816;27;20066;-70
2022/01/05 11:50:30;;;;;;;15.68;4.00;;;;;;;5.12;100.00;100740.53;5113249;27;20173;-68
2022/01/05 11:53:01;;;;;;;13.05;3.42;;;;;;;5.02;100.00;100766.22;5108819;27;20492;-69
2022/01/05 11:55:34;;;;;;;18.27;4.40;;;;;;;4.95;100.00;100768.94;5114997;27;20449;-71